Time;durP1;ratioP1;P1;durP2;ratioP2;P2;SDS_P1;SDS_P2;PMS_P1;PMS_P2;Temp;Humidity;BMP_temperature;BMP_pressure;BME280_temperature;BME280_humidity;BME280_pressure;Samples;Min_cycle;Max_cycle;Signal;HPM_P1;HPM_P2
2021/11/26 00:02:18;;;;;;;33.60;22.88;;;3.40;99.90;;;;;;5053597;28;20041;-62
2021/11/26 00:04:44;;;;;;;31.20;22.05;;;3.30;99.90;;;;;;5049872;28;20032;-61
2021/11/26 00:07:11;;;;;;;31.17;21.88;;;3.30;99.90;;;;;;5053898;28;20025;-62
2021/11/26 00:09:37;;;;;;;30.40;21.77;;;3.40;99.90;;;;;;5031374;28;20528;-60
2021/11/26 00:12:03;;;;;;;32.05;23.13;;;3.30;99.90;;;;;;5054684;28;20096;-61
2021/11/26 00:14:32;;;;;;;33.88;22.13;;;3.40;99.90;;;;;;5029082;28;20531;-61
2021/11/26 00:16:58;;;;;;;33.50;22.80;;;3.40;99.90;;;;;;5053090;28;20559;-60
2021/11/26 00:19:25;;;;;;;31.52;22.88;;;3.40;99.90;;;;;;5050826;28;20056;-59
2021/11/26 00:21:51;;;;;;;32.78;22.95;;;3.50;99.90;;;;;;5055136;28;20374;-62
2021/11/26 00:24:17;;;;;;;31.45;21.20;;;3.40;99.90;;;;;;5050860;28;20028;-61
2021/11/26 00:26:44;;;;;;;33.03;21.35;;;3.30;99.90;;;;;;5030631;28;20064;-63
2021/11/26 00:29:11;;;;;;;30.98;22.52;;;3.40;99.90;;;;;;5045084;28;20036;-61
2021/11/26 00:31:37;;;;;;;36.10;22.27;;;3.50;99.90;;;;;;5041485;28;20120;-60
2021/11/26 00:34:03;;;;;;;32.92;22.67;;;3.50;99.90;;;;;;5041944;28;20106;-60
2021/11/26 00:36:29;;;;;;;26.77;20.42;;;3.50;99.90;;;;;;5035530;28;20065;-61
2021/11/26 00:38:56;;;;;;;29.48;20.88;;;3.50;99.90;;;;;;5033128;28;20021;-62
2021/11/26 00:41:22;;;;;;;30.25;21.08;;;3.50;99.90;;;;;;5043967;28;20024;-61
2021/11/26 00:43:48;;;;;;;31.55;22.35;;;3.50;99.90;;;;;;5024772;28;20025;-62
2021/11/26 00:46:14;;;;;;;30.25;21.30;;;3.40;99.90;;;;;;5043130;28;20017;-63
2021/11/26 00:48:40;;;;;;;26.58;20.65;;;3.30;99.90;;;;;;5044105;28;21183;-62
2021/11/26 00:51:05;;;;;;;31.50;20.70;;;3.30;99.90;;;;;;5030889;28;20384;-63
2021/11/26 00:53:31;;;;;;;29.80;20.45;;;3.30;99.90;;;;;;5050913;28;20052;-62
2021/11/26 00:55:57;;;;;;;28.42;20.83;;;3.40;99.90;;;;;;5053094;28;20045;-62
2021/11/26 00:58:22;;;;;;;27.67;20.13;;;3.40;99.90;;;;;;5049813;28;20052;-61
2021/11/26 01:00:49;;;;;;;28.80;20.95;;;3.40;99.90;;;;;;5051994;28;20029;-61
2021/11/26 01:03:14;;;;;;;26.98;21.05;;;3.40;99.90;;;;;;5055051;28;20151;-60
2021/11/26 01:05:40;;;;;;;28.40;21.10;;;3.50;99.90;;;;;;5052769;28;20120;-61
2021/11/26 01:08:06;;;;;;;26.90;20.40;;;3.50;99.90;;;;;;5030718;28;20495;-62
2021/11/26 01:10:35;;;;;;;27.80;21.17;;;3.50;99.90;;;;;;5053040;28;20041;-61
2021/11/26 01:13:01;;;;;;;28.90;20.48;;;3.40;99.90;;;;;;5052602;28;20504;-60
2021/11/26 01:15:29;;;;;;;29.80;20.80;;;3.40;99.90;;;;;;5052801;28;20127;-61
2021/11/26 01:17:55;;;;;;;29.08;20.85;;;3.40;99.90;;;;;;5052511;28;20051;-61
2021/11/26 01:20:24;;;;;;;28.35;19.30;;;3.30;99.90;;;;;;5052507;28;20440;-58
2021/11/26 01:22:50;;;;;;;31.70;21.02;;;3.30;99.90;;;;;;5056020;28;20044;-62
2021/11/26 01:25:17;;;;;;;28.80;20.85;;;3.30;99.90;;;;;;5034895;28;20025;-61
2021/11/26 01:27:43;;;;;;;30.40;20.90;;;3.30;99.90;;;;;;5052489;28;20033;-62
2021/11/26 01:30:20;;;;;;;29.30;21.92;;;3.30;99.90;;;;;;5052168;28;20322;-61
2021/11/26 01:32:46;;;;;;;31.50;22.00;;;3.30;99.90;;;;;;5034584;28;20044;-62
2021/11/26 01:35:11;;;;;;;33.95;21.55;;;3.20;99.90;;;;;;5052488;28;20396;-64
2021/11/26 01:37:37;;;;;;;30.38;21.02;;;3.20;99.90;;;;;;5034429;28;20043;-62
2021/11/26 01:40:05;;;;;;;30.85;20.42;;;3.20;99.90;;;;;;5051896;28;20488;-61
2021/11/26 01:42:31;;;;;;;28.98;20.90;;;3.30;99.90;;;;;;5052241;28;20480;-62
2021/11/26 01:45:02;;;;;;;29.92;21.42;;;3.40;99.90;;;;;;5051898;28;20496;-60
2021/11/26 01:47:59;;;;;;;28.55;20.00;;;3.40;99.90;;;;;;5029985;28;20075;-60
2021/11/26 01:53:50;;;;;;;28.30;20.38;;;3.30;99.90;;;;;;5030179;28;20384;-61
2021/11/26 01:56:16;;;;;;;30.58;20.70;;;3.30;99.90;;;;;;5034805;28;20047;-61
2021/11/26 01:58:41;;;;;;;29.92;21.15;;;3.20;99.90;;;;;;5051875;28;20048;-61
2021/11/26 02:01:09;;;;;;;29.27;20.63;;;3.20;99.90;;;;;;5051765;28;20037;-61
2021/11/26 02:03:35;;;;;;;28.50;20.27;;;3.20;99.90;;;;;;5047324;28;20068;-62
2021/11/26 02:06:00;;;;;;;35.38;21.17;;;3.20;99.90;;;;;;5052123;28;20068;-62
2021/11/26 02:08:26;;;;;;;30.50;20.88;;;3.20;99.90;;;;;;5017561;28;20688;-62
2021/11/26 02:10:52;;;;;;;26.83;19.83;;;3.20;99.90;;;;;;5051643;28;20488;-62
2021/11/26 02:13:18;;;;;;;29.25;20.13;;;3.20;99.90;;;;;;5033819;28;20052;-61
2021/11/26 02:15:44;;;;;;;27.58;19.40;;;3.30;99.90;;;;;;5051911;28;20404;-61
2021/11/26 02:18:13;;;;;;;32.15;20.70;;;3.30;99.90;;;;;;5051889;28;20047;-59
2021/11/26 02:20:40;;;;;;;24.92;18.85;;;3.30;99.90;;;;;;5033883;28;20037;-62
2021/11/26 02:23:05;;;;;;;31.67;20.95;;;3.20;99.90;;;;;;5068265;28;20021;-61
2021/11/26 02:25:31;;;;;;;27.70;19.73;;;3.20;99.90;;;;;;5053680;28;20483;-61
2021/11/26 02:28:00;;;;;;;29.85;20.08;;;3.30;99.90;;;;;;5071980;28;20028;-62
2021/11/26 02:30:27;;;;;;;28.58;18.98;;;3.30;99.90;;;;;;5053734;28;20020;-60
2021/11/26 02:32:56;;;;;;;26.88;19.88;;;3.30;99.90;;;;;;5071410;28;20054;-60
2021/11/26 02:35:23;;;;;;;27.15;19.33;;;3.30;99.90;;;;;;5071354;28;20488;-62
2021/11/26 02:37:48;;;;;;;28.67;20.10;;;3.30;99.90;;;;;;5040197;28;20427;-61
2021/11/26 02:40:17;;;;;;;31.02;20.08;;;3.30;99.90;;;;;;5033337;28;20135;-62
2021/11/26 02:42:43;;;;;;;26.70;20.17;;;3.30;99.90;;;;;;5051770;28;20029;-62
2021/11/26 02:45:10;;;;;;;29.77;19.90;;;3.30;99.90;;;;;;5051468;28;20033;-61
2021/11/26 02:47:40;;;;;;;27.60;19.38;;;3.20;99.90;;;;;;5051749;28;20023;-61
2021/11/26 02:50:07;;;;;;;30.65;19.33;;;3.20;99.90;;;;;;5033921;28;20051;-61
2021/11/26 02:52:34;;;;;;;29.63;20.10;;;3.10;99.90;;;;;;5051621;28;20025;-62
2021/11/26 02:55:00;;;;;;;30.48;18.92;;;3.00;99.90;;;;;;5051944;28;20040;-60
2021/11/26 02:57:26;;;;;;;30.08;20.17;;;3.00;99.90;;;;;;5051375;28;20037;-61
2021/11/26 02:59:52;;;;;;;28.13;19.67;;;3.10;99.90;;;;;;5051378;28;20036;-60
2021/11/26 03:02:18;;;;;;;31.13;20.05;;;3.10;99.90;;;;;;5053136;28;20194;-62
2021/11/26 03:04:43;;;;;;;27.75;20.23;;;3.10;99.90;;;;;;5056827;28;20032;-62
2021/11/26 03:07:10;;;;;;;30.17;20.15;;;3.20;99.90;;;;;;5053529;28;20559;-61
2021/11/26 03:09:37;;;;;;;42.08;23.55;;;3.30;99.90;;;;;;5070977;28;20028;-61
2021/11/26 03:12:04;;;;;;;49.95;33.05;;;3.30;99.90;;;;;;5056424;28;20035;-61
2021/11/26 03:14:29;;;;;;;32.20;21.15;;;3.40;99.90;;;;;;5051251;28;20124;-59
2021/11/26 03:16:55;;;;;;;29.30;19.30;;;3.40;99.90;;;;;;5050977;28;20163;-61
2021/11/26 03:19:21;;;;;;;34.05;20.30;;;3.50;99.90;;;;;;5050742;28;20037;-61
2021/11/26 03:21:46;;;;;;;28.63;19.20;;;3.30;99.90;;;;;;5062141;28;20161;-63
2021/11/26 03:24:12;;;;;;;27.90;19.02;;;3.30;99.90;;;;;;5075493;28;20031;-62
2021/11/26 03:26:38;;;;;;;30.27;20.13;;;3.20;99.90;;;;;;5075447;28;20028;-62
2021/11/26 03:29:04;;;;;;;28.95;20.35;;;3.00;99.90;;;;;;5075268;28;20553;-64
2021/11/26 03:31:29;;;;;;;32.33;20.02;;;2.90;99.90;;;;;;5074366;28;20507;-62
2021/11/26 03:33:55;;;;;;;38.47;21.92;;;3.00;99.90;;;;;;5074998;28;20037;-62
2021/11/26 03:36:21;;;;;;;30.30;20.35;;;3.00;99.90;;;;;;5073634;28;20454;-61
2021/11/26 03:38:47;;;;;;;29.00;19.85;;;3.10;99.90;;;;;;5020508;28;20041;-61
2021/11/26 03:41:13;;;;;;;33.10;20.60;;;3.10;99.90;;;;;;5054300;28;20033;-61
2021/11/26 03:43:39;;;;;;;30.27;20.67;;;3.20;99.90;;;;;;5054538;28;20033;-62
2021/11/26 03:46:05;;;;;;;27.15;18.95;;;3.20;99.90;;;;;;5053827;28;20029;-60
2021/11/26 03:48:31;;;;;;;35.50;20.88;;;3.20;99.90;;;;;;5053697;28;20041;-61
2021/11/26 03:50:56;;;;;;;32.33;21.92;;;3.10;99.90;;;;;;5054344;28;20045;-61
2021/11/26 03:53:22;;;;;;;30.08;20.40;;;3.10;99.90;;;;;;5054587;28;20159;-61
2021/11/26 03:55:48;;;;;;;32.60;21.20;;;3.10;99.90;;;;;;5054666;28;20029;-59
2021/11/26 03:58:14;;;;;;;35.33;21.35;;;3.00;99.90;;;;;;5054745;28;20044;-62
2021/11/26 04:00:40;;;;;;;32.30;20.92;;;3.10;99.90;;;;;;5054080;28;20048;-60
2021/11/26 04:03:05;;;;;;;31.25;22.23;;;3.00;99.90;;;;;;5056825;28;20027;-62
2021/11/26 04:05:31;;;;;;;32.65;21.30;;;3.00;99.90;;;;;;5054388;28;20643;-62
2021/11/26 04:07:58;;;;;;;34.38;23.80;;;3.10;99.90;;;;;;5054343;28;20044;-61
2021/11/26 04:10:23;;;;;;;37.28;23.33;;;3.00;99.90;;;;;;5054636;28;20485;-62
2021/11/26 04:12:50;;;;;;;32.15;21.92;;;3.00;99.90;;;;;;5054069;28;20087;-59
2021/11/26 04:15:17;;;;;;;35.33;21.20;;;3.00;99.90;;;;;;5053786;28;20497;-60
2021/11/26 04:17:46;;;;;;;32.85;22.27;;;3.10;99.90;;;;;;5036138;28;20437;-58
2021/11/26 04:20:12;;;;;;;30.90;20.67;;;3.20;99.90;;;;;;5019410;28;20037;-57
2021/11/26 04:22:38;;;;;;;33.42;23.17;;;3.20;99.90;;;;;;5050941;28;20513;-60
2021/11/26 04:25:07;;;;;;;32.35;21.90;;;3.20;99.90;;;;;;5073522;28;20373;-62
2021/11/26 04:27:32;;;;;;;37.13;23.85;;;3.20;99.90;;;;;;5073945;28;20024;-61
2021/11/26 04:29:58;;;;;;;36.33;22.70;;;3.20;99.90;;;;;;5065482;28;20046;-61
2021/11/26 04:32:26;;;;;;;35.00;22.48;;;3.20;99.90;;;;;;5034659;28;20036;-61
2021/11/26 04:34:52;;;;;;;38.95;24.42;;;3.20;99.90;;;;;;5053976;28;20103;-60
2021/11/26 04:37:18;;;;;;;39.60;24.60;;;3.20;99.90;;;;;;5035962;28;20044;-62
2021/11/26 04:39:43;;;;;;;35.22;23.80;;;3.10;99.90;;;;;;5053331;28;20484;-61
2021/11/26 04:42:10;;;;;;;36.47;23.17;;;3.10;99.90;;;;;;5053897;28;20584;-59
2021/11/26 04:44:36;;;;;;;35.80;23.80;;;3.10;99.90;;;;;;5053525;28;20040;-60
2021/11/26 04:47:02;;;;;;;37.35;23.42;;;3.10;99.90;;;;;;5053791;28;20509;-62
2021/11/26 04:49:28;;;;;;;38.40;24.98;;;3.10;99.90;;;;;;5053933;28;20029;-61
2021/11/26 04:51:54;;;;;;;43.03;24.30;;;3.00;99.90;;;;;;5036218;28;20048;-61
2021/11/26 04:54:19;;;;;;;35.85;23.63;;;3.00;99.90;;;;;;5035835;28;20055;-60
2021/11/26 04:56:45;;;;;;;38.97;24.98;;;3.00;99.90;;;;;;5035565;28;20075;-61
2021/11/26 04:59:11;;;;;;;41.33;25.58;;;2.90;99.90;;;;;;5052857;28;20076;-63
2021/11/26 05:01:37;;;;;;;36.30;24.77;;;2.90;99.90;;;;;;5035346;28;20033;-61
2021/11/26 05:04:02;;;;;;;37.75;23.25;;;3.00;99.90;;;;;;5037861;28;20060;-60
2021/11/26 05:06:28;;;;;;;42.30;24.90;;;3.00;99.90;;;;;;5053205;28;20040;-61
2021/11/26 05:08:54;;;;;;;38.67;23.95;;;3.00;99.90;;;;;;5018537;28;20477;-62
2021/11/26 05:11:20;;;;;;;43.67;26.38;;;2.90;99.90;;;;;;5051645;28;20469;-63
2021/11/26 05:13:46;;;;;;;40.92;25.58;;;2.90;99.90;;;;;;5052803;28;20146;-61
2021/11/26 05:16:13;;;;;;;35.22;24.27;;;3.00;99.90;;;;;;5062207;28;20040;-62
2021/11/26 05:18:43;;;;;;;39.53;24.13;;;3.00;99.90;;;;;;5072982;28;20040;-61
2021/11/26 05:21:10;;;;;;;39.70;25.40;;;3.00;99.90;;;;;;5054551;28;20055;-61
2021/11/26 05:23:36;;;;;;;46.15;25.23;;;3.00;99.90;;;;;;5073050;28;20050;-63
2021/11/26 05:26:02;;;;;;;41.20;24.27;;;3.00;99.90;;;;;;5057895;28;20032;-62
2021/11/26 05:28:27;;;;;;;33.38;23.00;;;3.20;99.90;;;;;;5052928;28;20080;-63
2021/11/26 05:30:53;;;;;;;37.03;25.15;;;3.10;99.90;;;;;;5051530;28;20037;-63
2021/11/26 05:33:19;;;;;;;34.03;23.23;;;3.10;99.90;;;;;;5072125;28;20044;-63
2021/11/26 05:35:44;;;;;;;40.78;24.27;;;3.10;99.90;;;;;;5072587;28;20028;-62
2021/11/26 05:38:10;;;;;;;39.53;26.20;;;3.00;99.90;;;;;;5072749;28;20044;-60
2021/11/26 05:40:36;;;;;;;45.00;26.08;;;3.10;99.90;;;;;;5054557;28;20063;-62
2021/11/26 05:43:03;;;;;;;43.28;24.88;;;3.10;99.90;;;;;;5072646;28;20060;-62
2021/11/26 05:45:29;;;;;;;41.83;26.80;;;3.20;99.90;;;;;;5071630;28;20029;-63
2021/11/26 05:47:55;;;;;;;38.80;25.02;;;3.20;99.90;;;;;;5072761;28;20044;-61
2021/11/26 05:50:22;;;;;;;41.58;25.48;;;3.30;99.90;;;;;;5072296;28;20044;-61
2021/11/26 05:52:49;;;;;;;36.40;24.52;;;3.30;99.90;;;;;;5072658;28;20047;-63
2021/11/26 05:55:18;;;;;;;40.40;26.40;;;3.30;99.90;;;;;;5054499;28;20183;-63
2021/11/26 05:57:44;;;;;;;41.97;25.92;;;3.30;99.90;;;;;;5054969;28;20182;-64
2021/11/26 06:00:12;;;;;;;42.55;26.63;;;3.30;99.90;;;;;;5052427;28;20123;-66
2021/11/26 06:02:38;;;;;;;36.67;24.27;;;3.40;99.90;;;;;;5068001;28;20381;-64
2021/11/26 06:05:04;;;;;;;37.35;25.58;;;3.30;99.90;;;;;;5054512;28;20063;-64
2021/11/26 06:07:30;;;;;;;48.95;27.40;;;3.30;99.90;;;;;;5069925;28;20036;-61
2021/11/26 06:09:55;;;;;;;41.50;25.90;;;3.30;99.90;;;;;;5071950;28;20035;-63
2021/11/26 06:12:21;;;;;;;40.65;26.83;;;3.30;99.90;;;;;;5054366;28;20041;-65
2021/11/26 06:14:49;;;;;;;39.50;26.92;;;3.20;99.90;;;;;;5072417;28;20124;-61
2021/11/26 06:17:15;;;;;;;43.38;27.48;;;3.20;99.90;;;;;;5051889;28;20404;-67
2021/11/26 06:19:40;;;;;;;41.65;26.45;;;3.20;99.90;;;;;;5051919;28;20033;-64
2021/11/26 06:22:06;;;;;;;42.15;26.65;;;3.20;99.90;;;;;;5063561;28;20033;-62
2021/11/26 06:24:32;;;;;;;44.17;27.50;;;3.20;99.90;;;;;;5067514;28;20095;-62
2021/11/26 06:26:58;;;;;;;39.10;26.38;;;3.20;99.90;;;;;;5034717;28;20033;-61
2021/11/26 06:29:23;;;;;;;42.65;28.02;;;3.10;99.90;;;;;;5052638;28;20045;-63
2021/11/26 06:31:49;;;;;;;42.25;26.88;;;3.00;99.90;;;;;;5052865;28;20033;-63
2021/11/26 06:34:15;;;;;;;42.60;27.30;;;2.90;99.90;;;;;;5033522;28;20645;-62
2021/11/26 06:36:40;;;;;;;45.25;27.90;;;2.80;99.90;;;;;;5033807;28;20557;-62
2021/11/26 06:39:06;;;;;;;44.65;27.83;;;2.80;99.90;;;;;;5050849;28;20044;-62
2021/11/26 06:41:32;;;;;;;44.88;27.42;;;2.80;99.90;;;;;;5050911;28;20396;-64
2021/11/26 06:43:57;;;;;;;46.30;28.40;;;2.80;99.90;;;;;;5065612;28;20388;-62
2021/11/26 06:46:23;;;;;;;46.08;28.20;;;2.90;99.90;;;;;;5069222;28;20028;-65
2021/11/26 06:48:49;;;;;;;43.40;26.42;;;2.80;99.90;;;;;;5053644;28;20456;-61
2021/11/26 06:51:15;;;;;;;44.75;28.13;;;2.90;99.90;;;;;;5070864;28;20041;-64
2021/11/26 06:53:40;;;;;;;44.55;26.48;;;2.80;99.90;;;;;;5066401;28;20131;-62
2021/11/26 06:56:06;;;;;;;45.25;27.20;;;2.80;99.90;;;;;;5055081;28;20028;-61
2021/11/26 06:58:32;;;;;;;52.85;27.75;;;2.80;99.90;;;;;;5075068;28;20136;-63
2021/11/26 07:00:57;;;;;;;43.42;27.17;;;2.70;99.90;;;;;;5063498;28;20396;-63
2021/11/26 07:03:23;;;;;;;49.03;28.70;;;2.80;99.90;;;;;;5042422;28;20079;-64
2021/11/26 07:05:48;;;;;;;48.83;26.55;;;2.90;99.90;;;;;;5028477;28;20075;-62
2021/11/26 07:08:17;;;;;;;47.67;27.63;;;2.90;99.90;;;;;;5045146;28;20033;-62
2021/11/26 07:10:43;;;;;;;42.25;26.10;;;2.90;99.90;;;;;;5050650;28;20116;-63
2021/11/26 07:13:09;;;;;;;47.47;27.17;;;2.90;99.90;;;;;;5073308;28;20056;-61
2021/11/26 07:15:35;;;;;;;52.85;30.13;;;2.80;99.90;;;;;;5055687;28;20044;-60
2021/11/26 07:18:00;;;;;;;46.15;27.60;;;2.90;99.90;;;;;;5053023;28;20032;-59
2021/11/26 07:20:26;;;;;;;49.75;27.52;;;2.90;99.90;;;;;;5069360;28;20402;-61
2021/11/26 07:22:52;;;;;;;43.72;27.38;;;2.90;99.90;;;;;;5029398;28;20037;-60
2021/11/26 07:25:17;;;;;;;43.58;27.50;;;3.00;99.90;;;;;;5045935;28;20149;-62
2021/11/26 07:27:43;;;;;;;45.20;28.05;;;3.00;99.90;;;;;;5047648;28;20102;-61
2021/11/26 07:30:11;;;;;;;44.53;27.35;;;3.10;99.90;;;;;;5074650;28;20032;-62
2021/11/26 07:32:36;;;;;;;45.08;25.80;;;3.10;99.90;;;;;;5037104;28;20026;-62
2021/11/26 07:35:03;;;;;;;44.25;26.75;;;3.00;99.90;;;;;;5074754;28;20062;-64
2021/11/26 07:37:29;;;;;;;44.75;26.15;;;3.00;99.90;;;;;;5069309;28;20725;-63
2021/11/26 07:39:54;;;;;;;46.60;26.10;;;3.00;99.90;;;;;;5041044;28;20060;-63
2021/11/26 07:42:20;;;;;;;48.78;27.40;;;2.90;99.90;;;;;;5035862;28;20377;-62
2021/11/26 07:44:46;;;;;;;44.92;27.92;;;2.80;99.90;;;;;;5057781;28;20032;-61
2021/11/26 07:47:15;;;;;;;48.83;27.30;;;2.80;99.90;;;;;;5056738;28;20033;-63
2021/11/26 07:49:42;;;;;;;45.17;26.40;;;2.90;99.90;;;;;;5074222;28;20573;-59
2021/11/26 07:52:10;;;;;;;45.38;26.60;;;2.80;99.90;;;;;;5021872;28;20373;-65
2021/11/26 07:54:35;;;;;;;44.03;25.95;;;2.80;99.90;;;;;;5034681;28;20511;-61
2021/11/26 07:57:28;;;;;;;46.80;28.52;;;2.90;99.90;;;;;;5072920;28;20119;-63
2021/11/26 07:59:53;;;;;;;46.75;27.27;;;3.00;99.90;;;;;;5077250;28;20373;-61
2021/11/26 08:02:41;;;;;;;46.10;27.65;;;3.10;99.90;;;;;;5058080;28;20067;-64
2021/11/26 08:05:07;;;;;;;45.55;26.10;;;3.10;99.90;;;;;;5058048;28;20032;-62
2021/11/26 08:07:33;;;;;;;42.80;25.70;;;3.20;99.90;;;;;;5073490;28;20036;-61
2021/11/26 08:10:00;;;;;;;49.22;27.40;;;3.10;99.90;;;;;;5075443;28;20449;-64
2021/11/26 08:12:29;;;;;;;42.03;26.48;;;3.10;99.90;;;;;;5017544;28;20044;-63
2021/11/26 08:14:56;;;;;;;43.55;25.63;;;3.00;99.90;;;;;;5017905;28;20171;-64
2021/11/26 08:17:22;;;;;;;41.72;26.65;;;3.20;99.90;;;;;;5000488;28;20033;-63
2021/11/26 08:19:47;;;;;;;51.97;27.70;;;3.30;99.90;;;;;;5016078;28;20037;-61
2021/11/26 08:22:15;;;;;;;46.88;27.65;;;3.30;99.90;;;;;;5063427;28;20555;-63
2021/11/26 08:24:41;;;;;;;44.28;26.30;;;3.30;99.90;;;;;;5052042;28;20025;-64
2021/11/26 08:27:07;;;;;;;41.08;26.33;;;3.40;99.90;;;;;;5036329;28;20442;-63
2021/11/26 08:29:32;;;;;;;47.17;26.13;;;3.30;99.90;;;;;;5035917;28;20517;-64
2021/11/26 08:31:59;;;;;;;46.50;26.77;;;3.50;99.90;;;;;;5068970;28;20036;-61
2021/11/26 08:34:25;;;;;;;42.13;26.90;;;3.60;99.90;;;;;;5074554;28;20028;-63
2021/11/26 08:36:51;;;;;;;43.67;26.13;;;3.70;99.90;;;;;;5062015;28;20039;-63
2021/11/26 08:39:16;;;;;;;40.42;25.58;;;3.80;99.90;;;;;;5048686;28;20044;-62
2021/11/26 08:41:42;;;;;;;42.15;24.80;;;4.00;99.90;;;;;;5017166;28;20063;-63
2021/11/26 08:44:08;;;;;;;43.70;26.50;;;4.00;99.90;;;;;;5051153;28;20385;-62
2021/11/26 08:46:34;;;;;;;46.05;26.92;;;3.90;99.90;;;;;;5019005;28;20037;-63
2021/11/26 08:49:00;;;;;;;50.25;27.83;;;3.90;99.90;;;;;;5042742;28;20096;-62
2021/11/26 08:51:28;;;;;;;43.33;26.63;;;4.00;99.90;;;;;;5034588;28;20049;-64
2021/11/26 08:53:55;;;;;;;43.33;24.15;;;4.10;99.90;;;;;;5035699;28;20056;-63
2021/11/26 08:56:24;;;;;;;43.92;26.00;;;4.10;99.90;;;;;;5053082;28;20028;-63
2021/11/26 08:58:49;;;;;;;41.15;25.58;;;4.00;99.90;;;;;;5035124;28;20092;-65
2021/11/26 09:01:15;;;;;;;44.55;26.15;;;4.10;99.90;;;;;;5035111;28;20488;-64
2021/11/26 09:03:44;;;;;;;38.38;24.08;;;4.10;99.90;;;;;;5052372;28;20021;-64
2021/11/26 09:06:10;;;;;;;44.60;25.52;;;4.30;99.90;;;;;;5052458;28;20032;-63
2021/11/26 09:08:36;;;;;;;39.20;25.02;;;4.30;99.90;;;;;;5018607;28;20087;-64
2021/11/26 09:11:02;;;;;;;39.92;24.33;;;4.30;99.90;;;;;;5035586;28;20555;-64
2021/11/26 09:13:28;;;;;;;46.53;25.05;;;4.30;99.90;;;;;;5053272;28;20060;-63
2021/11/26 09:15:54;;;;;;;44.17;25.60;;;4.30;99.90;;;;;;5017492;28;20160;-62
2021/11/26 09:18:20;;;;;;;48.65;25.48;;;4.30;99.90;;;;;;5033663;28;20055;-61
2021/11/26 09:20:50;;;;;;;40.35;24.92;;;4.50;99.90;;;;;;5051674;28;20357;-61
2021/11/26 09:23:17;;;;;;;41.70;24.25;;;4.60;99.90;;;;;;5035669;28;20212;-64
2021/11/26 09:25:43;;;;;;;39.80;26.33;;;4.50;99.90;;;;;;5035164;28;20373;-62
2021/11/26 09:28:08;;;;;;;37.15;24.92;;;4.40;99.90;;;;;;5034928;28;20066;-62
2021/11/26 09:30:34;;;;;;;38.88;22.17;;;4.30;99.90;;;;;;5051809;28;20114;-62
2021/11/26 09:33:00;;;;;;;39.55;22.15;;;4.40;99.90;;;;;;5033971;28;20041;-64
2021/11/26 09:35:27;;;;;;;35.55;22.00;;;4.60;99.90;;;;;;5045678;28;20047;-61
2021/11/26 09:37:53;;;;;;;33.78;22.00;;;4.60;99.90;;;;;;5041032;28;20044;-63
2021/11/26 09:40:20;;;;;;;35.70;21.48;;;4.50;99.90;;;;;;5029911;28;20041;-62
2021/11/26 09:42:46;;;;;;;34.78;22.25;;;4.40;99.90;;;;;;5031131;28;20026;-61
2021/11/26 09:45:17;;;;;;;33.38;22.42;;;4.30;99.90;;;;;;5042839;28;20035;-62
2021/11/26 09:47:43;;;;;;;34.08;20.52;;;4.50;99.90;;;;;;5029809;28;20048;-63
2021/11/26 09:50:09;;;;;;;33.80;20.77;;;4.50;99.90;;;;;;5041881;28;20029;-63
2021/11/26 09:52:39;;;;;;;32.63;20.15;;;4.50;99.90;;;;;;5041711;28;20044;-64
2021/11/26 09:55:07;;;;;;;31.20;19.35;;;4.60;99.90;;;;;;5040052;28;20512;-62
2021/11/26 09:57:33;;;;;;;26.05;17.65;;;4.50;99.90;;;;;;5041171;28;20037;-62
2021/11/26 09:59:59;;;;;;;34.40;19.50;;;4.60;99.90;;;;;;5048428;28;20051;-63
2021/11/26 10:02:26;;;;;;;28.52;18.17;;;4.70;99.90;;;;;;5034735;28;20041;-60
2021/11/26 10:05:04;;;;;;;30.02;18.42;;;4.50;99.90;;;;;;5051024;28;20047;-59
2021/11/26 10:07:29;;;;;;;30.00;18.67;;;4.50;99.90;;;;;;5033711;28;20029;-62
2021/11/26 10:10:09;;;;;;;30.90;18.42;;;4.50;99.90;;;;;;5050399;28;20033;-63
2021/11/26 10:12:35;;;;;;;30.38;18.02;;;4.60;99.90;;;;;;5046427;28;20436;-60
2021/11/26 10:15:01;;;;;;;28.58;18.58;;;4.80;99.90;;;;;;5046183;28;20033;-62
2021/11/26 10:17:27;;;;;;;23.65;16.42;;;4.70;99.90;;;;;;5050655;28;20559;-61
2021/11/26 10:20:01;;;;;;;25.80;17.42;;;4.70;99.90;;;;;;5033661;28;20029;-62
2021/11/26 10:22:37;;;;;;;28.05;17.33;;;4.90;99.90;;;;;;5052263;28;20017;-63
2021/11/26 10:25:10;;;;;;;19.98;13.82;;;4.90;99.90;;;;;;5034222;28;20028;-62
2021/11/26 10:27:40;;;;;;;19.15;12.38;;;5.00;99.90;;;;;;5052208;28;20560;-64
2021/11/26 10:30:10;;;;;;;16.77;10.70;;;5.10;99.90;;;;;;5053052;28;20068;-62
2021/11/26 10:32:36;;;;;;;17.05;10.27;;;5.20;99.10;;;;;;5051592;28;20389;-62
2021/11/26 10:35:03;;;;;;;15.27;8.90;;;5.10;98.90;;;;;;5043052;28;20036;-63
2021/11/26 10:37:29;;;;;;;13.93;9.27;;;5.20;98.50;;;;;;5032644;28;20039;-61
2021/11/26 10:39:54;;;;;;;17.40;9.73;;;5.20;98.10;;;;;;5047890;28;20120;-60
2021/11/26 10:42:29;;;;;;;12.38;7.93;;;5.10;97.80;;;;;;5034097;28;20052;-62
2021/11/26 10:45:00;;;;;;;16.02;7.90;;;5.20;97.60;;;;;;5049427;28;20111;-60
2021/11/26 10:47:45;;;;;;;13.80;7.93;;;5.20;97.50;;;;;;5033779;28;20112;-63
2021/11/26 10:58:48;;;;;;;11.55;7.65;;;5.40;96.00;;;;;;5036561;28;20500;-62
2021/11/26 11:01:14;;;;;;;10.15;6.05;;;5.50;95.90;;;;;;5033667;28;20094;-62
2021/11/26 11:03:41;;;;;;;15.68;6.43;;;5.50;95.90;;;;;;5064684;28;20657;-63
2021/11/26 11:06:24;;;;;;;33.38;16.35;;;5.60;95.60;;;;;;5071832;28;20155;-62
2021/11/26 11:09:08;;;;;;;19.73;8.70;;;5.90;98.00;;;;;;5048488;28;20060;-61
2021/11/26 11:11:35;;;;;;;18.42;7.65;;;6.20;96.40;;;;;;5068545;28;20066;-67
2021/11/26 11:14:24;;;;;;;12.50;6.28;;;6.70;96.80;;;;;;5054130;28;20044;-63
2021/11/26 11:16:55;;;;;;;14.48;6.22;;;6.80;94.60;;;;;;5059023;28;20123;-63
2021/11/26 11:19:21;;;;;;;9.85;5.30;;;6.80;93.80;;;;;;5026904;28;20041;-64
2021/11/26 11:21:48;;;;;;;11.23;5.13;;;6.90;94.60;;;;;;5042450;28;20036;-60
2021/11/26 11:24:16;;;;;;;11.70;5.38;;;6.90;94.50;;;;;;5060066;28;20025;-65
2021/11/26 11:26:47;;;;;;;7.70;4.85;;;7.10;92.80;;;;;;5051370;28;20032;-65
2021/11/26 11:29:22;;;;;;;9.25;5.28;;;7.30;92.90;;;;;;5034064;28;20021;-64
2021/11/26 11:31:48;;;;;;;9.40;4.80;;;7.30;92.00;;;;;;5015442;28;20033;-63
2021/11/26 11:34:19;;;;;;;8.75;4.93;;;7.20;91.80;;;;;;5025228;28;20049;-61
2021/11/26 11:36:45;;;;;;;7.45;4.63;;;6.80;92.10;;;;;;5028000;28;20660;-64
2021/11/26 11:39:11;;;;;;;7.95;4.70;;;6.50;92.50;;;;;;5027967;28;20044;-64
2021/11/26 11:41:47;;;;;;;8.20;4.53;;;6.30;92.80;;;;;;5027431;28;20439;-62
2021/11/26 11:44:25;;;;;;;13.80;5.38;;;6.20;93.10;;;;;;5048330;28;20021;-65
2021/11/26 11:46:51;;;;;;;9.20;4.80;;;6.00;93.90;;;;;;5035221;28;20075;-63
2021/11/26 11:49:32;;;;;;;16.75;8.13;;;6.00;93.50;;;;;;5030398;28;20033;-63
2021/11/26 11:52:00;;;;;;;9.93;5.28;;;6.10;93.70;;;;;;5034120;28;20024;-62
2021/11/26 11:54:37;;;;;;;17.55;7.15;;;6.10;93.70;;;;;;5059976;28;20049;-62
2021/11/26 11:57:04;;;;;;;8.40;5.38;;;6.20;93.80;;;;;;5039270;28;20028;-64
2021/11/26 11:59:36;;;;;;;8.65;5.00;;;6.20;93.80;;;;;;5043148;28;20071;-62
2021/11/26 12:02:05;;;;;;;14.63;5.78;;;6.20;93.90;;;;;;5034126;28;20036;-65
2021/11/26 12:04:44;;;;;;;18.88;7.45;;;6.00;94.10;;;;;;5061866;28;20032;-62
2021/11/26 12:07:28;;;;;;;12.50;5.55;;;6.10;94.20;;;;;;5074991;28;20517;-62
2021/11/26 12:10:03;;;;;;;15.40;6.50;;;6.10;94.10;;;;;;5052812;28;20032;-61
2021/11/26 12:12:28;;;;;;;;;;;6.10;94.40;;;;;;5054869;28;20560;-62
2021/11/26 12:14:56;;;;;;;26.08;6.38;;;6.20;94.40;;;;;;5054312;28;19948;-62
2021/11/26 12:17:30;;;;;;;9.10;5.10;;;6.10;94.60;;;;;;5054137;28;20503;-64
2021/11/26 12:20:11;;;;;;;12.20;6.20;;;6.20;94.40;;;;;;5054052;28;20029;-64
2021/11/26 12:22:42;;;;;;;14.27;6.20;;;6.30;94.20;;;;;;5059167;28;20127;-63
2021/11/26 12:26:00;;;;;;;9.73;5.97;;;6.40;93.90;;;;;;5008420;28;20452;-65
2021/11/26 12:28:38;;;;;;;14.27;6.00;;;6.40;94.20;;;;;;5007059;28;20047;-64
2021/11/26 12:31:06;;;;;;;15.07;6.75;;;6.40;93.80;;;;;;5063911;28;20020;-64
2021/11/26 12:33:33;;;;;;;13.88;5.85;;;6.40;94.00;;;;;;5078155;28;20046;-63
2021/11/26 12:36:01;;;;;;;9.77;5.90;;;6.30;94.20;;;;;;5082592;28;20046;-64
2021/11/26 12:38:48;;;;;;;16.92;7.15;;;6.40;94.10;;;;;;5041606;28;20028;-64
2021/11/26 12:41:38;;;;;;;12.60;5.05;;;6.50;93.80;;;;;;5058943;28;20055;-61
2021/11/26 12:44:05;;;;;;;12.98;5.43;;;6.40;93.70;;;;;;5057114;28;20021;-61
2021/11/26 12:46:34;;;;;;;7.72;4.95;;;6.40;94.00;;;;;;5064317;28;20033;-61
2021/11/26 12:49:15;;;;;;;8.57;5.05;;;6.60;93.90;;;;;;5065591;28;20063;-62
2021/11/26 12:51:45;;;;;;;9.27;4.45;;;6.60;93.60;;;;;;5054378;28;20028;-62
2021/11/26 12:54:33;;;;;;;13.45;6.45;;;6.70;93.20;;;;;;5057300;28;20047;-62
2021/11/26 12:57:05;;;;;;;9.45;5.28;;;6.70;93.00;;;;;;5053608;28;20037;-64